Time,TemperatureF,DewpointF,PressureIn,WindDirection,WindDirectionDegrees,WindSpeedMPH,WindSpeedGustMPH,Humidity,HourlyPrecipIn,Conditions,Clouds,dailyrainin,SoftwareType,DateUTC
2013-05-08 00:01:00,63.0,34.1,30.06,South,180,0.0,0.0,34,0.00,CLR,,0.00,WeatherDisplay:10.37,2013-05-08 05:01:00,
2013-05-08 00:06:00,63.0,34.9,30.06,SE,135,0.0,0.0,35,0.00,CLR,,0.00,WeatherDisplay:10.37,2013-05-08 05:06:00,
2013-05-08 00:11:00,63.0,34.9,30.06,SSE,158,0.0,0.0,35,0.00,CLR,,0.00,WeatherDisplay:10.37,2013-05-08 05:11:00,
2013-05-08 00:16:00,63.0,35.6,30.06,SSE,158,0.0,0.0,36,0.00,CLR,,0.00,WeatherDisplay:10.37,2013-05-08 05:16:00,
2013-05-08 00:21:00,63.0,36.3,30.06,South,180,0.0,0.0,37,0.00,CLR,,0.00,WeatherDisplay:10.37,2013-05-08 05:21:00,
2013-05-08 00:26:00,62.8,35.4,30.06,South,180,0.0,0.0,36,0.00,CLR,,0.00,WeatherDisplay:10.37,2013-05-08 05:26:00,
2013-05-08 00:31:00,62.8,36.1,30.06,South,180,0.0,0.0,37,0.00,CLR,,0.00,WeatherDisplay:10.37,2013-05-08 05:31:00,
2013-05-08 00:36:00,62.8,37.4,30.06,South,180,0.0,0.0,39,0.00,CLR,,0.00,WeatherDisplay:10.37,2013-05-08 05:36:00,
2013-05-08 00:41:00,62.8,39.9,30.06,SSE,158,0.0,0.0,43,0.00,CLR,,0.00,WeatherDisplay:10.37,2013-05-08 05:41:00,
2013-05-08 00:46:00,62.6,39.2,30.06,SSE,158,0.0,0.0,42,0.00,CLR,,0.00,WeatherDisplay:10.37,2013-05-08 05:46:00,
2013-05-08 00:51:00,62.6,39.2,30.06,SSE,158,0.0,0.0,42,0.00,CLR,,0.00,WeatherDisplay:10.37,2013-05-08 05:51:00,
2013-05-08 00:56:00,62.6,39.8,30.06,South,180,0.0,0.0,43,0.00,CLR,,0.00,WeatherDisplay:10.37,2013-05-08 05:56:00,
2013-05-08 01:01:00,62.4,40.2,30.06,South,180,0.0,0.0,44,0.00,CLR,,0.00,WeatherDisplay:10.37,2013-05-08 06:01:00,
2013-05-08 01:06:00,62.2,40.0,30.03,South,180,0.0,0.0,44,0.00,CLR,,0.00,WeatherDisplay:10.37,2013-05-08 06:06:00,
2013-05-08 01:11:00,62.1,39.3,30.03,South,180,0.0,0.0,43,0.00,CLR,,0.00,WeatherDisplay:10.37,2013-05-08 06:11:00,
2013-05-08 01:16:00,61.9,39.7,30.03,South,180,0.0,0.0,44,0.00,CLR,,0.00,WeatherDisplay:10.37,2013-05-08 06:16:00,
2013-05-08 01:21:00,61.5,39.4,30.06,South,180,0.0,0.0,44,0.00,CLR,,0.00,WeatherDisplay:10.37,2013-05-08 06:21:00,
2013-05-08 01:26:00,61.3,39.2,30.06,South,180,0.0,0.0,44,0.00,CLR,,0.00,WeatherDisplay:10.37,2013-05-08 06:26:00,
2013-05-08 01:31:00,60.8,38.7,30.06,South,180,0.0,0.0,44,0.00,CLR,,0.00,WeatherDisplay:10.37,2013-05-08 06:31:00,
2013-05-08 01:36:00,60.4,38.4,30.03,South,180,0.0,0.0,44,0.00,CLR,,0.00,WeatherDisplay:10.37,2013-05-08 06:36:00,
2013-05-08 01:41:00,60.3,38.2,30.03,South,180,0.0,0.0,44,0.00,CLR,,0.00,WeatherDisplay:10.37,2013-05-08 06:41:00,
2013-05-08 01:47:00,59.9,38.5,30.03,South,180,0.0,0.0,45,0.00,CLR,,0.00,WeatherDisplay:10.37,2013-05-08 06:47:00,
2013-05-08 01:52:00,59.7,38.3,30.03,South,180,0.0,0.0,45,0.00,CLR,,0.00,WeatherDisplay:10.37,2013-05-08 06:52:00,
2013-05-08 01:57:00,59.4,38.6,30.03,South,180,0.0,0.0,46,0.00,CLR,,0.00,WeatherDisplay:10.37,2013-05-08 06:57:00,
2013-05-08 02:02:00,59.4,38.6,30.03,South,180,0.0,0.0,46,0.00,CLR,,0.00,WeatherDisplay:10.37,2013-05-08 07:02:00,
2013-05-08 02:07:00,59.0,37.7,30.03,South,180,0.0,0.0,45,0.00,CLR,,0.00,WeatherDisplay:10.37,2013-05-08 07:07:00,
2013-05-08 02:12:00,58.8,37.5,30.03,South,180,0.0,0.0,45,0.00,CLR,,0.00,WeatherDisplay:10.37,2013-05-08 07:12:00,
2013-05-08 02:17:00,58.5,38.3,30.03,South,180,0.0,0.0,47,0.00,CLR,,0.00,WeatherDisplay:10.37,2013-05-08 07:17:00,
2013-05-08 02:22:00,58.1,38.0,30.03,South,180,0.0,0.0,47,0.00,CLR,,0.00,WeatherDisplay:10.37,2013-05-08 07:22:00,
2013-05-08 02:27:00,57.9,38.3,30.03,South,180,0.0,0.0,48,0.00,CLR,,0.00,WeatherDisplay:10.37,2013-05-08 07:27:00,
2013-05-08 02:32:00,57.7,38.2,30.03,South,180,0.0,0.0,48,0.00,CLR,,0.00,WeatherDisplay:10.37,2013-05-08 07:32:00,
2013-05-08 02:37:00,57.6,37.5,30.00,South,180,0.0,0.0,47,0.00,CLR,,0.00,WeatherDisplay:10.37,2013-05-08 07:37:00,
2013-05-08 02:42:00,57.4,37.3,30.00,South,180,0.0,0.0,47,0.00,CLR,,0.00,WeatherDisplay:10.37,2013-05-08 07:42:00,
2013-05-08 02:47:00,57.2,37.1,30.00,South,180,0.0,0.0,47,0.00,CLR,,0.00,WeatherDisplay:10.37,2013-05-08 07:47:00,
2013-05-08 02:52:00,57.0,37.5,30.03,South,180,0.0,0.0,48,0.00,CLR,,0.00,WeatherDisplay:10.37,2013-05-08 07:52:00,
2013-05-08 02:57:00,56.8,37.3,30.03,South,180,0.0,0.0,48,0.00,CLR,,0.00,WeatherDisplay:10.37,2013-05-08 07:57:00,
2013-05-08 03:02:00,56.7,37.2,30.03,South,180,0.0,0.0,48,0.00,CLR,,0.00,WeatherDisplay:10.37,2013-05-08 08:02:00,
2013-05-08 03:07:00,56.5,37.0,30.03,South,180,0.0,0.0,48,0.00,CLR,,0.00,WeatherDisplay:10.37,2013-05-08 08:07:00,
2013-05-08 03:12:00,56.3,37.4,30.03,South,180,0.0,0.0,49,0.00,CLR,,0.00,WeatherDisplay:10.37,2013-05-08 08:12:00,
2013-05-08 03:17:00,56.3,37.4,30.03,South,180,0.0,0.0,49,0.00,CLR,,0.00,WeatherDisplay:10.37,2013-05-08 08:17:00,
2013-05-08 03:22:00,56.1,37.7,30.03,South,180,0.0,0.0,50,0.00,CLR,,0.00,WeatherDisplay:10.37,2013-05-08 08:22:00,
2013-05-08 03:27:00,55.9,37.6,30.03,South,180,0.0,0.0,50,0.00,CLR,,0.00,WeatherDisplay:10.37,2013-05-08 08:27:00,
2013-05-08 03:32:00,55.9,37.6,30.03,South,180,0.0,0.0,50,0.00,CLR,,0.00,WeatherDisplay:10.37,2013-05-08 08:32:00,
2013-05-08 03:37:00,55.8,36.9,30.03,South,180,0.0,0.0,49,0.00,CLR,,0.00,WeatherDisplay:10.37,2013-05-08 08:37:00,
2013-05-08 03:42:00,55.8,36.9,30.03,South,180,0.0,0.0,49,0.00,CLR,,0.00,WeatherDisplay:10.37,2013-05-08 08:42:00,
2013-05-08 03:47:00,55.8,36.9,30.03,South,180,0.0,0.0,49,0.00,CLR,,0.00,WeatherDisplay:10.37,2013-05-08 08:47:00,
2013-05-08 03:52:00,55.8,37.4,30.03,South,180,0.0,0.0,50,0.00,CLR,,0.00,WeatherDisplay:10.37,2013-05-08 08:52:00,
2013-05-08 03:57:00,55.8,37.9,30.03,South,180,0.0,0.0,51,0.00,CLR,,0.00,WeatherDisplay:10.37,2013-05-08 08:57:00,
2013-05-08 04:02:00,55.6,37.7,30.03,South,180,0.0,0.0,51,0.00,CLR,,0.00,WeatherDisplay:10.37,2013-05-08 09:02:00,
2013-05-08 04:07:00,55.6,37.7,30.03,South,180,0.0,0.0,51,0.00,CLR,,0.00,WeatherDisplay:10.37,2013-05-08 09:07:00,
2013-05-08 04:12:00,55.6,38.2,30.03,South,180,0.0,0.0,52,0.00,CLR,,0.00,WeatherDisplay:10.37,2013-05-08 09:12:00,
2013-05-08 04:17:00,55.4,38.1,30.03,South,180,0.0,0.0,52,0.00,CLR,,0.00,WeatherDisplay:10.37,2013-05-08 09:17:00,
2013-05-08 04:22:00,55.4,38.1,30.03,South,180,0.0,0.0,52,0.00,CLR,,0.00,WeatherDisplay:10.37,2013-05-08 09:22:00,
2013-05-08 04:27:00,55.4,38.5,30.03,South,180,0.0,0.0,53,0.00,CLR,,0.00,WeatherDisplay:10.37,2013-05-08 09:27:00,
2013-05-08 04:32:00,55.2,38.9,30.03,South,180,0.0,0.0,54,0.00,CLR,,0.00,WeatherDisplay:10.37,2013-05-08 09:32:00,
2013-05-08 04:37:00,55.0,39.6,30.03,South,180,0.0,0.0,56,0.00,CLR,,0.00,WeatherDisplay:10.37,2013-05-08 09:37:00,
2013-05-08 04:42:00,55.0,38.7,30.03,South,180,0.0,0.0,54,0.00,CLR,,0.00,WeatherDisplay:10.37,2013-05-08 09:42:00,
2013-05-08 04:47:00,54.9,38.5,30.03,South,180,0.0,0.0,54,0.00,CLR,,0.00,WeatherDisplay:10.37,2013-05-08 09:47:00,
2013-05-08 04:52:00,54.9,39.0,30.03,South,180,0.0,0.0,55,0.00,CLR,,0.00,WeatherDisplay:10.37,2013-05-08 09:52:00,
2013-05-08 04:57:00,54.7,38.8,30.03,South,180,0.0,0.0,55,0.00,CLR,,0.00,WeatherDisplay:10.37,2013-05-08 09:57:00,
2013-05-08 05:02:00,54.7,38.8,30.03,South,180,0.0,0.0,55,0.00,CLR,,0.00,WeatherDisplay:10.37,2013-05-08 10:02:00,
2013-05-08 05:07:00,54.5,38.2,30.03,South,180,0.0,0.0,54,0.00,CLR,,0.00,WeatherDisplay:10.37,2013-05-08 10:07:00,
2013-05-08 05:12:00,54.5,38.7,30.03,South,180,0.0,0.0,55,0.00,CLR,,0.00,WeatherDisplay:10.37,2013-05-08 10:12:00,
2013-05-08 05:17:00,54.3,38.9,30.03,South,180,0.0,0.0,56,0.00,CLR,,0.00,WeatherDisplay:10.37,2013-05-08 10:17:00,
2013-05-08 05:22:00,54.3,38.5,30.06,South,180,0.0,0.0,55,0.00,CLR,,0.00,WeatherDisplay:10.37,2013-05-08 10:22:00,
2013-05-08 05:27:00,54.1,38.8,30.06,South,180,0.0,0.0,56,0.00,CLR,,0.00,WeatherDisplay:10.37,2013-05-08 10:27:00,
2013-05-08 05:32:00,54.1,38.8,30.06,South,180,0.0,0.0,56,0.00,CLR,,0.00,WeatherDisplay:10.37,2013-05-08 10:32:00,
2013-05-08 05:37:00,54.0,38.6,30.06,South,180,0.0,0.0,56,0.00,CLR,,0.00,WeatherDisplay:10.37,2013-05-08 10:37:00,
2013-05-08 05:42:00,54.1,38.3,30.06,South,180,0.0,0.0,55,0.00,CLR,,0.00,WeatherDisplay:10.37,2013-05-08 10:42:00,
2013-05-08 05:47:00,54.1,39.2,30.06,South,180,0.0,0.0,57,0.00,CLR,,0.00,WeatherDisplay:10.37,2013-05-08 10:47:00,
2013-05-08 05:52:00,54.1,39.2,30.06,South,180,0.0,0.0,57,0.00,CLR,,0.00,WeatherDisplay:10.37,2013-05-08 10:52:00,
2013-05-08 05:57:00,54.0,39.1,30.06,South,180,0.0,0.0,57,0.00,CLR,,0.00,WeatherDisplay:10.37,2013-05-08 10:57:00,
2013-05-08 06:02:00,54.0,39.1,30.06,South,180,0.0,0.0,57,0.00,CLR,,0.00,WeatherDisplay:10.37,2013-05-08 11:02:00,
2013-05-08 06:07:00,54.0,40.4,30.06,South,180,0.0,0.0,60,0.00,CLR,,0.00,WeatherDisplay:10.37,2013-05-08 11:07:00,
2013-05-08 06:12:00,54.0,39.9,30.06,South,180,0.0,0.0,59,0.00,CLR,,0.00,WeatherDisplay:10.37,2013-05-08 11:12:00,
2013-05-08 06:17:00,54.3,40.3,30.06,South,180,0.0,0.0,59,0.00,CLR,,0.00,WeatherDisplay:10.37,2013-05-08 11:17:00,
2013-05-08 06:22:00,54.5,40.5,30.06,South,180,0.0,0.0,59,0.00,CLR,,0.00,WeatherDisplay:10.37,2013-05-08 11:22:00,
2013-05-08 06:27:00,54.5,40.5,30.06,South,180,0.0,0.0,59,0.00,CLR,,0.00,WeatherDisplay:10.37,2013-05-08 11:27:00,
2013-05-08 06:32:00,54.5,40.5,30.06,South,180,0.0,0.0,59,0.00,CLR,,0.00,WeatherDisplay:10.37,2013-05-08 11:32:00,
2013-05-08 06:37:00,54.7,40.6,30.06,South,180,0.0,0.0,59,0.00,CLR,,0.00,WeatherDisplay:10.37,2013-05-08 11:37:00,
2013-05-08 06:42:00,54.9,41.2,30.06,South,180,0.0,0.0,60,0.00,CLR,,0.00,WeatherDisplay:10.37,2013-05-08 11:42:00,
2013-05-08 06:47:00,54.9,41.7,30.06,South,180,0.0,0.0,61,0.00,CLR,,0.00,WeatherDisplay:10.37,2013-05-08 11:47:00,
2013-05-08 06:52:00,54.9,41.7,30.09,South,180,0.0,0.0,61,0.00,CLR,,0.00,WeatherDisplay:10.37,2013-05-08 11:52:00,
2013-05-08 06:57:00,55.0,42.7,30.09,South,180,0.0,0.0,63,0.00,CLR,,0.00,WeatherDisplay:10.37,2013-05-08 11:57:00,
2013-05-08 07:02:00,55.2,42.8,30.09,West,270,0.0,0.0,63,0.00,CLR,,0.00,WeatherDisplay:10.37,2013-05-08 12:02:00,
2013-05-08 07:07:00,55.2,43.2,30.09,West,270,0.0,0.0,64,0.00,CLR,,0.00,WeatherDisplay:10.37,2013-05-08 12:07:00,
2013-05-08 07:12:00,55.8,43.8,30.09,SSW,202,0.0,0.0,64,0.00,CLR,,0.00,WeatherDisplay:10.37,2013-05-08 12:12:00,
2013-05-08 07:17:00,56.1,44.1,30.09,SSW,202,0.0,0.0,64,0.00,CLR,,0.00,WeatherDisplay:10.37,2013-05-08 12:17:00,
2013-05-08 07:22:00,56.3,44.7,30.09,SSW,202,0.0,0.0,65,0.00,CLR,,0.00,WeatherDisplay:10.37,2013-05-08 12:22:00,
2013-05-08 07:27:00,56.5,44.0,30.09,SSW,202,0.0,0.0,63,0.00,CLR,,0.00,WeatherDisplay:10.37,2013-05-08 12:27:00,
2013-05-08 07:32:00,56.7,44.6,30.09,SSW,202,0.0,0.0,64,0.00,CLR,,0.00,WeatherDisplay:10.37,2013-05-08 12:32:00,
2013-05-08 07:37:00,57.0,44.5,30.06,SSW,202,0.0,0.0,63,0.00,CLR,,0.00,WeatherDisplay:10.37,2013-05-08 12:37:00,
2013-05-08 07:42:00,57.2,45.5,30.06,SSW,202,0.0,0.0,65,0.00,CLR,,0.00,WeatherDisplay:10.37,2013-05-08 12:42:00,
2013-05-08 07:47:00,57.2,44.7,30.06,SSW,202,0.0,0.0,63,0.00,CLR,,0.00,WeatherDisplay:10.37,2013-05-08 12:47:00,
2013-05-08 07:52:00,57.4,45.3,30.09,SSW,202,0.0,0.0,64,0.00,CLR,,0.00,WeatherDisplay:10.37,2013-05-08 12:52:00,
2013-05-08 07:57:00,57.6,45.9,30.09,SSW,202,0.0,0.0,65,0.00,CLR,,0.00,WeatherDisplay:10.37,2013-05-08 12:57:00,
2013-05-08 08:02:00,57.9,46.6,30.09,SSW,202,0.0,0.0,66,0.00,CLR,,0.00,WeatherDisplay:10.37,2013-05-08 13:02:00,
2013-05-08 08:07:00,58.1,46.0,30.12,SSW,202,0.0,0.0,64,0.00,CLR,,0.00,WeatherDisplay:10.37,2013-05-08 13:07:00,
2013-05-08 08:12:00,58.5,45.5,30.12,SSW,202,0.0,0.0,62,0.00,CLR,,0.00,WeatherDisplay:10.37,2013-05-08 13:12:00,
2013-05-08 08:17:00,59.0,47.2,30.12,SSW,202,0.0,0.0,65,0.00,CLR,,0.00,WeatherDisplay:10.37,2013-05-08 13:17:00,
2013-05-08 08:22:00,59.4,47.2,30.12,South,180,0.0,0.0,64,0.00,CLR,,0.00,WeatherDisplay:10.37,2013-05-08 13:22:00,
2013-05-08 08:27:00,59.9,47.7,30.12,South,180,0.0,0.0,64,0.00,CLR,,0.00,WeatherDisplay:10.37,2013-05-08 13:27:00,
2013-05-08 08:32:00,60.8,50.2,30.12,South,180,0.0,0.0,68,0.00,CLR,,0.00,WeatherDisplay:10.37,2013-05-08 13:32:00,
2013-05-08 08:37:00,61.3,51.1,30.12,South,180,0.0,0.0,69,0.00,CLR,,0.00,WeatherDisplay:10.37,2013-05-08 13:37:00,
2013-05-08 08:42:00,62.2,52.7,30.12,South,180,0.0,0.0,71,0.00,CLR,,0.00,WeatherDisplay:10.37,2013-05-08 13:42:00,
2013-05-08 08:47:00,63.0,53.0,30.12,SSE,158,0.0,0.0,70,0.00,CLR,,0.00,WeatherDisplay:10.37,2013-05-08 13:47:00,
2013-05-08 08:52:00,63.9,53.9,30.09,South,180,0.0,0.0,70,0.00,CLR,,0.00,WeatherDisplay:10.37,2013-05-08 13:52:00,
2013-05-08 08:57:00,64.4,54.4,30.09,South,180,0.0,0.0,70,0.00,CLR,,0.00,WeatherDisplay:10.37,2013-05-08 13:57:00,
2013-05-08 09:02:00,65.1,53.5,30.09,South,180,0.0,0.0,66,0.00,CLR,,0.00,WeatherDisplay:10.37,2013-05-08 14:02:00,
2013-05-08 09:07:00,65.5,52.5,30.09,South,180,0.0,0.0,63,0.00,CLR,,0.00,WeatherDisplay:10.37,2013-05-08 14:07:00,
2013-05-08 09:12:00,65.7,50.9,30.09,South,180,0.0,0.0,59,0.00,CLR,,0.00,WeatherDisplay:10.37,2013-05-08 14:12:00,
2013-05-08 09:17:00,66.0,49.4,30.09,South,180,0.0,0.0,55,0.00,CLR,,0.00,WeatherDisplay:10.37,2013-05-08 14:17:00,
2013-05-08 09:22:00,66.7,49.6,30.09,South,180,0.0,0.0,54,0.00,CLR,,0.00,WeatherDisplay:10.37,2013-05-08 14:22:00,
2013-05-08 09:27:00,67.5,48.7,30.09,SSE,158,0.0,0.0,51,0.00,CLR,,0.00,WeatherDisplay:10.37,2013-05-08 14:27:00,
2013-05-08 09:32:00,67.8,45.7,30.09,SE,135,0.0,0.0,45,0.00,CLR,,0.00,WeatherDisplay:10.37,2013-05-08 14:32:00,
2013-05-08 09:37:00,68.0,45.3,30.12,SSE,158,0.0,0.0,44,0.00,CLR,,0.00,WeatherDisplay:10.37,2013-05-08 14:37:00,
2013-05-08 09:42:00,68.7,45.9,30.12,SSE,158,0.0,0.0,44,0.00,CLR,,0.00,WeatherDisplay:10.37,2013-05-08 14:42:00,
2013-05-08 09:47:00,68.9,43.6,30.12,South,180,0.0,0.0,40,0.00,CLR,,0.00,WeatherDisplay:10.37,2013-05-08 14:47:00,
2013-05-08 09:52:00,68.9,42.9,30.12,South,180,0.0,0.0,39,0.00,CLR,,0.00,WeatherDisplay:10.37,2013-05-08 14:52:00,
2013-05-08 09:57:00,69.1,43.7,30.12,South,180,0.0,0.0,40,0.00,CLR,,0.00,WeatherDisplay:10.37,2013-05-08 14:57:00,
2013-05-08 10:02:00,69.3,41.2,30.12,South,180,0.0,0.0,36,0.00,CLR,,0.00,WeatherDisplay:10.37,2013-05-08 15:02:00,
2013-05-08 10:07:00,69.8,41.6,30.12,South,180,0.0,0.0,36,0.00,CLR,,0.00,WeatherDisplay:10.37,2013-05-08 15:07:00,
2013-05-08 10:12:00,69.6,40.7,30.12,South,180,0.0,0.0,35,0.00,CLR,,0.00,WeatherDisplay:10.37,2013-05-08 15:12:00,
2013-05-08 10:17:00,69.6,40.7,30.12,South,180,0.0,0.0,35,0.00,CLR,,0.00,WeatherDisplay:10.37,2013-05-08 15:17:00,
2013-05-08 10:22:00,69.6,40.7,30.09,SSE,158,0.0,0.0,35,0.00,CLR,,0.00,WeatherDisplay:10.37,2013-05-08 15:22:00,
2013-05-08 10:27:00,70.0,41.8,30.09,SSE,158,0.0,0.0,36,0.00,CLR,,0.00,WeatherDisplay:10.37,2013-05-08 15:27:00,
2013-05-08 10:32:00,70.0,41.1,30.09,SE,135,0.0,0.0,35,0.00,CLR,,0.00,WeatherDisplay:10.37,2013-05-08 15:32:00,
2013-05-08 10:37:00,70.5,41.5,30.15,SE,135,0.0,0.0,35,0.00,CLR,,0.00,WeatherDisplay:10.37,2013-05-08 15:37:00,
2013-05-08 10:42:00,71.1,41.3,30.15,SSE,158,0.0,0.0,34,0.00,CLR,,0.00,WeatherDisplay:10.37,2013-05-08 15:42:00,
2013-05-08 10:47:00,70.9,40.3,30.15,SSW,202,0.0,0.0,33,0.00,CLR,,0.00,WeatherDisplay:10.37,2013-05-08 15:47:00,
2013-05-08 10:52:00,71.1,39.7,30.15,SE,135,0.0,0.0,32,0.00,CLR,,0.00,WeatherDisplay:10.37,2013-05-08 15:52:00,
2013-05-08 10:57:00,71.1,38.9,30.15,South,180,0.0,0.0,31,0.00,CLR,,0.00,WeatherDisplay:10.37,2013-05-08 15:57:00,
2013-05-08 11:03:00,72.5,40.1,30.15,SE,135,0.0,0.0,31,0.00,CLR,,0.00,WeatherDisplay:10.37,2013-05-08 16:03:00,
2013-05-08 11:08:00,72.9,40.4,30.12,SE,135,0.0,0.0,31,0.00,CLR,,0.00,WeatherDisplay:10.37,2013-05-08 16:08:00,
2013-05-08 11:13:00,73.0,39.8,30.12,SSE,158,0.0,0.0,30,0.00,CLR,,0.00,WeatherDisplay:10.37,2013-05-08 16:13:00,
2013-05-08 11:18:00,73.6,39.4,30.12,South,180,0.0,0.0,29,0.00,CLR,,0.00,WeatherDisplay:10.37,2013-05-08 16:18:00,
2013-05-08 11:23:00,74.3,39.1,30.12,South,180,0.0,0.0,28,0.00,CLR,,0.00,WeatherDisplay:10.37,2013-05-08 16:23:00,
2013-05-08 11:28:00,74.1,36.0,30.12,SSE,158,0.0,0.0,25,0.00,CLR,,0.00,WeatherDisplay:10.37,2013-05-08 16:28:00,
2013-05-08 11:33:00,74.8,37.6,30.12,SSE,158,0.0,0.0,26,0.00,CLR,,0.00,WeatherDisplay:10.37,2013-05-08 16:33:00,
2013-05-08 11:38:00,75.4,37.1,30.12,South,180,0.0,0.0,25,0.00,CLR,,0.00,WeatherDisplay:10.37,2013-05-08 16:38:00,
2013-05-08 11:43:00,75.9,35.4,30.12,SSE,158,0.0,0.0,23,0.00,CLR,,0.00,WeatherDisplay:10.37,2013-05-08 16:43:00,
2013-05-08 11:48:00,76.1,34.5,30.12,SE,135,0.0,0.0,22,0.00,CLR,,0.00,WeatherDisplay:10.37,2013-05-08 16:48:00,
2013-05-08 11:53:00,76.5,34.8,30.09,South,180,0.0,0.0,22,0.00,CLR,,0.00,WeatherDisplay:10.37,2013-05-08 16:53:00,
2013-05-08 11:58:00,78.1,36.1,30.09,South,180,0.0,0.0,22,0.00,CLR,,0.00,WeatherDisplay:10.37,2013-05-08 16:58:00,
2013-05-08 12:03:00,77.4,34.4,30.09,SSE,158,0.0,0.0,21,0.00,CLR,,0.00,WeatherDisplay:10.37,2013-05-08 17:03:00,
2013-05-08 12:08:00,77.4,33.1,30.06,SSE,158,0.0,0.0,20,0.00,CLR,,0.00,WeatherDisplay:10.37,2013-05-08 17:08:00,
2013-05-08 12:13:00,78.3,33.9,30.06,SSE,158,0.0,0.0,20,0.00,CLR,,0.00,WeatherDisplay:10.37,2013-05-08 17:13:00,
2013-05-08 12:18:00,79.0,34.5,30.06,South,180,0.0,0.0,20,0.00,CLR,,0.00,WeatherDisplay:10.37,2013-05-08 17:18:00,
2013-05-08 12:23:00,79.2,34.6,30.09,SSE,158,0.0,0.0,20,0.00,CLR,,0.00,WeatherDisplay:10.37,2013-05-08 17:23:00,
2013-05-08 12:28:00,79.3,34.8,30.09,East,90,0.0,0.0,20,0.00,CLR,,0.00,WeatherDisplay:10.37,2013-05-08 17:28:00,
2013-05-08 12:33:00,80.1,34.1,30.09,SE,135,0.0,0.0,19,0.00,CLR,,0.00,WeatherDisplay:10.37,2013-05-08 17:33:00,
2013-05-08 12:38:00,79.3,34.8,30.09,SW,225,0.0,0.0,20,0.00,CLR,,0.00,WeatherDisplay:10.37,2013-05-08 17:38:00,
2013-05-08 12:43:00,78.8,30.3,30.09,ESE,112,0.0,0.0,17,0.00,CLR,,0.00,WeatherDisplay:10.37,2013-05-08 17:43:00,
2013-05-08 12:48:00,79.3,30.7,30.09,South,180,0.0,0.0,17,0.00,CLR,,0.00,WeatherDisplay:10.37,2013-05-08 17:48:00,
2013-05-08 12:53:00,80.2,29.9,30.09,South,180,0.0,0.0,16,0.00,CLR,,0.00,WeatherDisplay:10.37,2013-05-08 17:53:00,
2013-05-08 12:58:00,80.1,29.8,30.09,South,180,0.0,0.0,16,0.00,CLR,,0.00,WeatherDisplay:10.37,2013-05-08 17:58:00,
2013-05-08 13:03:00,80.2,29.9,30.09,South,180,0.0,0.0,16,0.00,CLR,,0.00,WeatherDisplay:10.37,2013-05-08 18:03:00,
2013-05-08 13:08:00,80.4,30.1,30.06,South,180,0.0,0.0,16,0.00,CLR,,0.00,WeatherDisplay:10.37,2013-05-08 18:08:00,
2013-05-08 13:13:00,82.0,31.4,30.06,SSW,202,0.0,0.0,16,0.00,CLR,,0.00,WeatherDisplay:10.37,2013-05-08 18:13:00,
2013-05-08 13:18:00,81.7,31.1,30.06,South,180,0.0,0.0,16,0.00,CLR,,0.00,WeatherDisplay:10.37,2013-05-08 18:18:00,
2013-05-08 13:23:00,81.1,30.7,30.06,SE,135,0.0,0.0,16,0.00,CLR,,0.00,WeatherDisplay:10.37,2013-05-08 18:23:00,
2013-05-08 13:28:00,81.1,27.4,30.06,SE,135,0.0,0.0,14,0.00,CLR,,0.00,WeatherDisplay:10.37,2013-05-08 18:28:00,
2013-05-08 13:33:00,80.8,27.1,30.06,South,180,0.0,0.0,14,0.00,CLR,,0.00,WeatherDisplay:10.37,2013-05-08 18:33:00,
2013-05-08 13:38:00,82.2,31.5,30.06,SE,135,0.0,0.0,16,0.00,CLR,,0.00,WeatherDisplay:10.37,2013-05-08 18:38:00,
2013-05-08 13:43:00,81.7,26.0,30.06,South,180,0.0,0.0,13,0.00,CLR,,0.00,WeatherDisplay:10.37,2013-05-08 18:43:00,
2013-05-08 13:48:00,83.5,32.5,30.06,SE,135,0.0,0.0,16,0.00,CLR,,0.00,WeatherDisplay:10.37,2013-05-08 18:48:00,
2013-05-08 13:53:00,83.7,32.7,30.03,South,180,0.0,0.0,16,0.00,CLR,,0.00,WeatherDisplay:10.37,2013-05-08 18:53:00,
2013-05-08 13:58:00,83.5,27.4,30.03,SE,135,0.0,0.0,13,0.00,CLR,,0.00,WeatherDisplay:10.37,2013-05-08 18:58:00,
2013-05-08 14:03:00,82.8,26.9,30.03,SE,135,0.0,0.0,13,0.00,CLR,,0.00,WeatherDisplay:10.37,2013-05-08 19:03:00,
2013-05-08 14:08:00,82.4,26.6,30.03,South,180,0.0,0.0,13,0.00,CLR,,0.00,WeatherDisplay:10.37,2013-05-08 19:08:00,
2013-05-08 14:13:00,81.9,26.2,30.03,SE,135,0.0,0.0,13,0.00,CLR,,0.00,WeatherDisplay:10.37,2013-05-08 19:13:00,
2013-05-08 14:18:00,81.9,26.2,30.03,South,180,0.0,0.0,13,0.00,CLR,,0.00,WeatherDisplay:10.37,2013-05-08 19:18:00,
2013-05-08 14:23:00,81.3,25.7,30.03,SSW,202,0.0,0.0,13,0.00,CLR,,0.00,WeatherDisplay:10.37,2013-05-08 19:23:00,
2013-05-08 14:28:00,81.9,31.2,30.03,SSE,158,0.0,0.0,16,0.00,CLR,,0.00,WeatherDisplay:10.37,2013-05-08 19:28:00,
2013-05-08 14:33:00,82.4,26.6,30.03,SE,135,0.0,0.0,13,0.00,CLR,,0.00,WeatherDisplay:10.37,2013-05-08 19:33:00,
2013-05-08 14:38:00,82.8,26.9,30.03,South,180,0.0,0.0,13,0.00,CLR,,0.00,WeatherDisplay:10.37,2013-05-08 19:38:00,
2013-05-08 14:43:00,81.7,26.0,30.03,SSE,158,0.0,0.0,13,0.00,CLR,,0.00,WeatherDisplay:10.37,2013-05-08 19:43:00,
2013-05-08 14:48:00,81.5,25.9,30.03,South,180,0.0,0.0,13,0.00,CLR,,0.00,WeatherDisplay:10.37,2013-05-08 19:48:00,
2013-05-08 14:53:00,82.0,31.4,30.03,South,180,0.0,0.0,16,0.00,CLR,,0.00,WeatherDisplay:10.37,2013-05-08 19:53:00,
2013-05-08 14:58:00,81.5,25.9,30.03,South,180,0.0,0.0,13,0.00,CLR,,0.00,WeatherDisplay:10.37,2013-05-08 19:58:00,
2013-05-08 15:03:00,81.9,31.2,30.03,SSE,158,0.0,0.0,16,0.00,CLR,,0.00,WeatherDisplay:10.37,2013-05-08 20:03:00,
2013-05-08 15:08:00,81.5,31.0,30.03,SE,135,0.0,0.0,16,0.00,CLR,,0.00,WeatherDisplay:10.37,2013-05-08 20:08:00,
2013-05-08 15:13:00,81.9,31.2,30.03,South,180,0.0,0.0,16,0.00,CLR,,0.00,WeatherDisplay:10.37,2013-05-08 20:13:00,
2013-05-08 15:18:00,81.7,26.0,30.03,South,180,0.0,0.0,13,0.00,CLR,,0.00,WeatherDisplay:10.37,2013-05-08 20:18:00,
2013-05-08 15:23:00,81.5,25.9,30.00,South,180,0.0,0.0,13,0.00,CLR,,0.00,WeatherDisplay:10.37,2013-05-08 20:23:00,
2013-05-08 15:28:00,81.1,30.7,30.00,SW,225,0.0,0.0,16,0.00,CLR,,0.00,WeatherDisplay:10.37,2013-05-08 20:28:00,
2013-05-08 15:33:00,81.9,31.2,30.00,SE,135,0.0,0.0,16,0.00,CLR,,0.00,WeatherDisplay:10.37,2013-05-08 20:33:00,
2013-05-08 15:38:00,81.5,31.0,30.00,South,180,0.0,0.0,16,0.00,CLR,,0.00,WeatherDisplay:10.37,2013-05-08 20:38:00,
2013-05-08 15:43:00,81.1,27.4,30.00,SE,135,0.0,0.0,14,0.00,CLR,,0.00,WeatherDisplay:10.37,2013-05-08 20:43:00,
2013-05-08 15:48:00,81.3,30.8,30.00,SSE,158,0.0,0.0,16,0.00,CLR,,0.00,WeatherDisplay:10.37,2013-05-08 20:48:00,
2013-05-08 15:53:00,80.6,30.2,29.97,SE,135,0.0,0.0,16,0.00,CLR,,0.00,WeatherDisplay:10.37,2013-05-08 20:53:00,
2013-05-08 15:58:00,81.5,31.0,29.97,SE,135,0.0,0.0,16,0.00,CLR,,0.00,WeatherDisplay:10.37,2013-05-08 20:58:00,
2013-05-08 16:03:00,80.8,30.4,29.97,SW,225,0.0,0.0,16,0.00,CLR,,0.00,WeatherDisplay:10.37,2013-05-08 21:03:00,
2013-05-08 16:08:00,80.6,30.2,29.97,SSE,158,0.0,0.0,16,0.00,CLR,,0.00,WeatherDisplay:10.37,2013-05-08 21:08:00,
2013-05-08 16:13:00,79.7,26.3,29.97,SSE,158,0.0,0.0,14,0.00,CLR,,0.00,WeatherDisplay:10.37,2013-05-08 21:13:00,
2013-05-08 16:18:00,79.3,26.0,29.97,South,180,0.0,0.0,14,0.00,CLR,,0.00,WeatherDisplay:10.37,2013-05-08 21:18:00,
2013-05-08 16:23:00,79.5,29.4,29.97,SSW,202,0.0,0.0,16,0.00,CLR,,0.00,WeatherDisplay:10.37,2013-05-08 21:23:00,
2013-05-08 16:28:00,79.2,25.8,29.97,SE,135,0.0,0.0,14,0.00,CLR,,0.00,WeatherDisplay:10.37,2013-05-08 21:28:00,
2013-05-08 16:33:00,78.8,25.5,29.97,SE,135,0.0,0.0,14,0.00,CLR,,0.00,WeatherDisplay:10.37,2013-05-08 21:33:00,
2013-05-08 16:38:00,79.0,25.7,29.97,SE,135,0.0,0.0,14,0.00,CLR,,0.00,WeatherDisplay:10.37,2013-05-08 21:38:00,
2013-05-08 16:43:00,79.3,26.0,29.97,South,180,0.0,0.0,14,0.00,CLR,,0.00,WeatherDisplay:10.37,2013-05-08 21:43:00,
2013-05-08 16:48:00,79.2,25.8,29.97,SE,135,0.0,0.0,14,0.00,CLR,,0.00,WeatherDisplay:10.37,2013-05-08 21:48:00,
2013-05-08 16:53:00,79.0,25.7,29.97,South,180,0.0,0.0,14,0.00,CLR,,0.00,WeatherDisplay:10.37,2013-05-08 21:53:00,
2013-05-08 16:58:00,79.2,30.6,29.97,South,180,0.0,0.0,17,0.00,CLR,,0.00,WeatherDisplay:10.37,2013-05-08 21:58:00,
2013-05-08 17:03:00,78.8,30.3,29.97,SSE,158,0.0,0.0,17,0.00,CLR,,0.00,WeatherDisplay:10.37,2013-05-08 22:03:00,
2013-05-08 17:08:00,78.8,30.3,29.97,South,180,0.0,0.0,17,0.00,CLR,,0.00,WeatherDisplay:10.37,2013-05-08 22:08:00,
2013-05-08 17:13:00,78.8,30.3,29.97,SE,135,0.0,0.0,17,0.00,CLR,,0.00,WeatherDisplay:10.37,2013-05-08 22:13:00,
2013-05-08 17:18:00,77.9,29.5,29.97,South,180,0.0,0.0,17,0.00,CLR,,0.00,WeatherDisplay:10.37,2013-05-08 22:18:00,
2013-05-08 17:23:00,77.5,29.3,29.97,SSE,158,0.0,0.0,17,0.00,CLR,,0.00,WeatherDisplay:10.37,2013-05-08 22:23:00,
2013-05-08 17:28:00,77.4,29.1,29.97,SE,135,0.0,0.0,17,0.00,CLR,,0.00,WeatherDisplay:10.37,2013-05-08 22:28:00,
2013-05-08 17:33:00,77.0,28.8,29.97,SSE,158,0.0,0.0,17,0.00,CLR,,0.00,WeatherDisplay:10.37,2013-05-08 22:33:00,
2013-05-08 17:38:00,76.6,28.5,29.97,SSE,158,0.0,0.0,17,0.00,CLR,,0.00,WeatherDisplay:10.37,2013-05-08 22:38:00,
2013-05-08 17:43:00,76.6,28.5,29.97,South,180,0.0,0.0,17,0.00,CLR,,0.00,WeatherDisplay:10.37,2013-05-08 22:43:00,
2013-05-08 17:48:00,76.5,28.4,29.97,South,180,0.0,0.0,17,0.00,CLR,,0.00,WeatherDisplay:10.37,2013-05-08 22:48:00,
2013-05-08 17:53:00,76.5,28.4,29.94,South,180,0.0,0.0,17,0.00,CLR,,0.00,WeatherDisplay:10.37,2013-05-08 22:53:00,
2013-05-08 17:58:00,76.1,28.1,29.94,South,180,0.0,0.0,17,0.00,CLR,,0.00,WeatherDisplay:10.37,2013-05-08 22:58:00,
2013-05-08 18:03:00,76.1,28.1,29.94,SE,135,0.0,0.0,17,0.00,CLR,,0.00,WeatherDisplay:10.37,2013-05-08 23:03:00,
2013-05-08 18:08:00,75.9,27.9,29.97,South,180,0.0,0.0,17,0.00,CLR,,0.00,WeatherDisplay:10.37,2013-05-08 23:08:00,
2013-05-08 18:13:00,75.7,29.2,29.97,South,180,0.0,0.0,18,0.00,CLR,,0.00,WeatherDisplay:10.37,2013-05-08 23:13:00,
2013-05-08 18:18:00,75.4,28.9,29.97,SE,135,0.0,0.0,18,0.00,CLR,,0.00,WeatherDisplay:10.37,2013-05-08 23:18:00,
2013-05-08 18:23:00,75.0,28.6,29.94,SE,135,0.0,0.0,18,0.00,CLR,,0.00,WeatherDisplay:10.37,2013-05-08 23:23:00,
2013-05-08 18:28:00,74.8,28.5,29.94,SE,135,0.0,0.0,18,0.00,CLR,,0.00,WeatherDisplay:10.37,2013-05-08 23:28:00,
2013-05-08 18:33:00,74.5,28.2,29.94,SSE,158,0.0,0.0,18,0.00,CLR,,0.00,WeatherDisplay:10.37,2013-05-08 23:33:00,
2013-05-08 18:38:00,74.3,28.0,29.94,South,180,0.0,0.0,18,0.00,CLR,,0.00,WeatherDisplay:10.37,2013-05-08 23:38:00,
2013-05-08 18:43:00,74.1,27.9,29.94,SE,135,0.0,0.0,18,0.00,CLR,,0.00,WeatherDisplay:10.37,2013-05-08 23:43:00,
2013-05-08 18:48:00,73.9,30.3,29.94,SSE,158,0.0,0.0,20,0.00,CLR,,0.00,WeatherDisplay:10.37,2013-05-08 23:48:00,
2013-05-08 18:53:00,73.8,30.2,29.97,SSE,158,0.0,0.0,20,0.00,CLR,,0.00,WeatherDisplay:10.37,2013-05-08 23:53:00,
2013-05-08 18:58:00,73.4,29.9,29.97,SE,135,0.0,0.0,20,0.00,CLR,,0.00,WeatherDisplay:10.37,2013-05-08 23:58:00,
2013-05-08 19:03:00,73.2,30.9,29.97,SSE,158,0.0,0.0,21,0.00,CLR,,0.00,WeatherDisplay:10.37,2013-05-09 00:03:00,
2013-05-08 19:08:00,73.0,30.8,29.97,South,180,0.0,0.0,21,0.00,CLR,,0.00,WeatherDisplay:10.37,2013-05-09 00:08:00,
2013-05-08 19:13:00,72.9,30.6,29.97,SE,135,0.0,0.0,21,0.00,CLR,,0.00,WeatherDisplay:10.37,2013-05-09 00:13:00,
2013-05-08 19:18:00,72.5,31.5,29.97,SE,135,0.0,0.0,22,0.00,CLR,,0.00,WeatherDisplay:10.37,2013-05-09 00:18:00,
2013-05-08 19:23:00,72.1,32.3,29.94,SE,135,0.0,0.0,23,0.00,CLR,,0.00,WeatherDisplay:10.37,2013-05-09 00:23:00,
2013-05-08 19:28:00,72.0,32.1,29.94,SSE,158,0.0,0.0,23,0.00,CLR,,0.00,WeatherDisplay:10.37,2013-05-09 00:28:00,
2013-05-08 19:33:00,71.6,32.9,29.94,South,180,0.0,0.0,24,0.00,CLR,,0.00,WeatherDisplay:10.37,2013-05-09 00:33:00,
2013-05-08 19:38:00,71.2,33.6,29.97,South,180,0.0,0.0,25,0.00,CLR,,0.00,WeatherDisplay:10.37,2013-05-09 00:38:00,
2013-05-08 19:43:00,71.1,33.4,29.97,SE,135,0.0,0.0,25,0.00,CLR,,0.00,WeatherDisplay:10.37,2013-05-09 00:43:00,
2013-05-08 19:48:00,70.9,33.3,29.97,SE,135,0.0,0.0,25,0.00,CLR,,0.00,WeatherDisplay:10.37,2013-05-09 00:48:00,
2013-05-08 19:53:00,70.5,34.0,29.94,SSE,158,0.0,0.0,26,0.00,CLR,,0.00,WeatherDisplay:10.37,2013-05-09 00:53:00,
2013-05-08 19:59:00,70.2,33.7,29.94,South,180,0.0,0.0,26,0.00,CLR,,0.00,WeatherDisplay:10.37,2013-05-09 00:59:00,
2013-05-08 20:04:00,69.8,34.3,29.94,SSE,158,0.0,0.0,27,0.00,CLR,,0.00,WeatherDisplay:10.37,2013-05-09 01:04:00,
2013-05-08 20:09:00,69.4,34.9,29.97,South,180,0.0,0.0,28,0.00,CLR,,0.00,WeatherDisplay:10.37,2013-05-09 01:09:00,
2013-05-08 20:14:00,69.1,34.6,29.97,South,180,0.0,0.0,28,0.00,CLR,,0.00,WeatherDisplay:10.37,2013-05-09 01:14:00,
2013-05-08 20:19:00,68.7,36.0,29.97,South,180,0.0,0.0,30,0.00,CLR,,0.00,WeatherDisplay:10.37,2013-05-09 01:19:00,
2013-05-08 20:24:00,68.5,37.5,29.97,SSE,158,0.0,0.0,32,0.00,CLR,,0.00,WeatherDisplay:10.37,2013-05-09 01:24:00,
2013-05-08 20:29:00,68.2,37.2,29.97,South,180,0.0,0.0,32,0.00,CLR,,0.00,WeatherDisplay:10.37,2013-05-09 01:29:00,
2013-05-08 20:34:00,68.0,37.8,29.97,SSE,158,0.0,0.0,33,0.00,CLR,,0.00,WeatherDisplay:10.37,2013-05-09 01:34:00,
2013-05-08 20:39:00,67.8,37.6,29.94,SSE,158,0.0,0.0,33,0.00,CLR,,0.00,WeatherDisplay:10.37,2013-05-09 01:39:00,
2013-05-08 20:44:00,67.6,38.3,29.94,SE,135,0.0,0.0,34,0.00,CLR,,0.00,WeatherDisplay:10.37,2013-05-09 01:44:00,
2013-05-08 20:49:00,67.5,38.1,29.94,SE,135,0.0,0.0,34,0.00,CLR,,0.00,WeatherDisplay:10.37,2013-05-09 01:49:00,
2013-05-08 20:54:00,67.3,38.7,29.94,SSE,158,0.0,0.0,35,0.00,CLR,,0.00,WeatherDisplay:10.37,2013-05-09 01:54:00,
2013-05-08 20:59:00,66.9,39.1,29.94,South,180,0.0,0.0,36,0.00,CLR,,0.00,WeatherDisplay:10.37,2013-05-09 01:59:00,
2013-05-08 21:04:00,66.7,38.9,29.94,South,180,0.0,0.0,36,0.00,CLR,,0.00,WeatherDisplay:10.37,2013-05-09 02:04:00,
2013-05-08 21:09:00,66.6,39.5,29.97,South,180,0.0,0.0,37,0.00,CLR,,0.00,WeatherDisplay:10.37,2013-05-09 02:09:00,
2013-05-08 21:14:00,66.2,39.1,29.97,South,180,0.0,0.0,37,0.00,CLR,,0.00,WeatherDisplay:10.37,2013-05-09 02:14:00,
2013-05-08 21:19:00,66.2,39.8,29.97,SSE,158,0.0,0.0,38,0.00,CLR,,0.00,WeatherDisplay:10.37,2013-05-09 02:19:00,
2013-05-08 21:24:00,65.8,39.5,29.97,South,180,0.0,0.0,38,0.00,CLR,,0.00,WeatherDisplay:10.37,2013-05-09 02:24:00,
2013-05-08 21:29:00,65.7,38.7,29.97,South,180,0.0,0.0,37,0.00,CLR,,0.00,WeatherDisplay:10.37,2013-05-09 02:29:00,
2013-05-08 21:34:00,65.5,39.2,29.97,SSE,158,0.0,0.0,38,0.00,CLR,,0.00,WeatherDisplay:10.37,2013-05-09 02:34:00,
2013-05-08 21:39:00,65.3,39.0,29.94,SE,135,0.0,0.0,38,0.00,CLR,,0.00,WeatherDisplay:10.37,2013-05-09 02:39:00,
2013-05-08 21:44:00,65.3,41.6,29.94,South,180,0.0,0.0,42,0.00,CLR,,0.00,WeatherDisplay:10.37,2013-05-09 02:44:00,
2013-05-08 21:49:00,65.1,42.1,29.94,South,180,0.0,0.0,43,0.00,CLR,,0.00,WeatherDisplay:10.37,2013-05-09 02:49:00,
2013-05-08 21:54:00,64.9,41.9,29.97,SSE,158,0.0,0.0,43,0.00,CLR,,0.00,WeatherDisplay:10.37,2013-05-09 02:54:00,
2013-05-08 21:59:00,64.8,42.3,29.97,South,180,0.0,0.0,44,0.00,CLR,,0.00,WeatherDisplay:10.37,2013-05-09 02:59:00,
2013-05-08 22:04:00,64.6,42.2,29.97,South,180,0.0,0.0,44,0.00,CLR,,0.00,WeatherDisplay:10.37,2013-05-09 03:04:00,
2013-05-08 22:09:00,64.4,42.0,29.97,South,180,0.0,0.0,44,0.00,CLR,,0.00,WeatherDisplay:10.37,2013-05-09 03:09:00,
2013-05-08 22:14:00,64.2,41.8,29.97,South,180,0.0,0.0,44,0.00,CLR,,0.00,WeatherDisplay:10.37,2013-05-09 03:14:00,
2013-05-08 22:19:00,64.0,41.7,29.97,South,180,0.0,0.0,44,0.00,CLR,,0.00,WeatherDisplay:10.37,2013-05-09 03:19:00,
2013-05-08 22:24:00,63.9,42.1,29.97,South,180,0.0,0.0,45,0.00,CLR,,0.00,WeatherDisplay:10.37,2013-05-09 03:24:00,
2013-05-08 22:29:00,63.9,43.2,29.97,SSE,158,0.0,0.0,47,0.00,CLR,,0.00,WeatherDisplay:10.37,2013-05-09 03:29:00,
2013-05-08 22:34:00,63.7,43.1,29.97,South,180,0.0,0.0,47,0.00,CLR,,0.00,WeatherDisplay:10.37,2013-05-09 03:34:00,
2013-05-08 22:39:00,63.7,43.6,29.97,SE,135,0.0,0.0,48,0.00,CLR,,0.00,WeatherDisplay:10.37,2013-05-09 03:39:00,
2013-05-08 22:44:00,63.5,44.0,29.97,South,180,0.0,0.0,49,0.00,CLR,,0.00,WeatherDisplay:10.37,2013-05-09 03:44:00,
2013-05-08 22:49:00,63.5,44.5,29.97,South,180,0.0,0.0,50,0.00,CLR,,0.00,WeatherDisplay:10.37,2013-05-09 03:49:00,
2013-05-08 22:54:00,63.5,45.6,29.97,SSE,158,0.0,0.0,52,0.00,CLR,,0.00,WeatherDisplay:10.37,2013-05-09 03:54:00,
2013-05-08 22:59:00,63.5,46.1,29.97,SSE,158,0.0,0.0,53,0.00,CLR,,0.00,WeatherDisplay:10.37,2013-05-09 03:59:00,
2013-05-08 23:01:00,63.7,47.7,29.97,SSE,158,0.0,0.0,56,0.00,CLR,,0.00,WeatherDisplay:10.37,2013-05-09 04:01:00,
2013-05-08 23:02:00,63.7,47.7,29.97,South,180,0.0,0.0,56,0.00,CLR,,0.00,WeatherDisplay:10.37,2013-05-09 04:02:00,
2013-05-08 23:07:00,63.5,47.0,29.97,South,180,0.0,0.0,55,0.00,CLR,,0.00,WeatherDisplay:10.37,2013-05-09 04:07:00,
2013-05-08 23:12:00,63.7,48.2,29.97,SSE,158,0.0,0.0,57,0.00,CLR,,0.00,WeatherDisplay:10.37,2013-05-09 04:12:00,
2013-05-08 23:17:00,63.7,48.2,29.97,SSE,158,0.0,0.0,57,0.00,CLR,,0.00,WeatherDisplay:10.37,2013-05-09 04:17:00,
2013-05-08 23:22:00,63.7,48.6,30.00,South,180,0.0,0.0,58,0.00,CLR,,0.00,WeatherDisplay:10.37,2013-05-09 04:22:00,
2013-05-08 23:27:00,63.5,48.5,30.00,South,180,0.0,0.0,58,0.00,CLR,,0.00,WeatherDisplay:10.37,2013-05-09 04:27:00,
2013-05-08 23:32:00,63.7,50.0,30.00,SSE,158,0.0,0.0,61,0.00,CLR,,0.00,WeatherDisplay:10.37,2013-05-09 04:32:00,
2013-05-08 23:37:00,63.5,49.4,30.00,SE,135,0.0,0.0,60,0.00,CLR,,0.00,WeatherDisplay:10.37,2013-05-09 04:37:00,
2013-05-08 23:42:00,63.3,48.7,30.00,South,180,0.0,0.0,59,0.00,CLR,,0.00,WeatherDisplay:10.37,2013-05-09 04:42:00,
2013-05-08 23:47:00,63.1,48.6,30.00,South,180,0.0,0.0,59,0.00,CLR,,0.00,WeatherDisplay:10.37,2013-05-09 04:47:00,
2013-05-08 23:52:00,63.1,48.1,30.00,South,180,0.0,0.0,58,0.00,CLR,,0.00,WeatherDisplay:10.37,2013-05-09 04:52:00,
2013-05-08 23:57:00,63.0,47.9,30.00,South,180,0.0,0.0,58,0.00,CLR,,0.00,WeatherDisplay:10.37,2013-05-09 04:57:00,